Time;durP1;ratioP1;P1;durP2;ratioP2;P2;SDS_P1;SDS_P2;PMS_P1;PMS_P2;Temp;Humidity;BMP_temperature;BMP_pressure;BME280_temperature;BME280_humidity;BME280_pressure;Samples;Min_cycle;Max_cycle;Signal;HPM_P1;HPM_P2
2022/08/12 00:44:16;;;;;;;3.97;2.30;;;18.20;99.90;;;;;;5057449;28;20140;-83
2022/08/12 00:46:51;;;;;;;3.95;3.30;;;18.20;99.90;;;;;;5056137;28;20048;-82
2022/08/12 00:49:17;;;;;;;9.20;2.65;;;18.20;99.90;;;;;;5057234;28;20219;-81
2022/08/12 00:52:06;;;;;;;5.25;2.72;;;18.10;99.90;;;;;;5057932;28;20357;-82
2022/08/12 00:54:37;;;;;;;4.97;2.40;;;18.10;99.90;;;;;;5061065;28;20073;-82
2022/08/12 00:57:09;;;;;;;3.78;2.35;;;18.10;99.90;;;;;;5036656;28;20546;-81
2022/08/12 01:00:22;;;;;;;;;;;;;;;;;;;;;
2022/08/12 01:02:57;;;;;;;4.47;2.65;;;18.10;99.90;;;;;;5058492;28;20049;-82
2022/08/12 01:13:46;;;;;;;6.00;2.40;;;17.90;99.90;;;;;;5069837;28;20044;-83
2022/08/12 01:16:21;;;;;;;5.78;2.78;;;17.90;99.90;;;;;;5064239;28;20041;-82
2022/08/12 01:18:48;;;;;;;5.05;2.45;;;17.90;99.90;;;;;;5063878;28;20037;-81
2022/08/12 01:21:26;;;;;;;4.82;2.95;;;17.80;99.90;;;;;;5067657;28;20045;-82
2022/08/12 01:24:12;;;;;;;3.95;2.90;;;17.90;99.90;;;;;;5065219;28;20041;-81
2022/08/12 01:26:39;;;;;;;4.25;3.47;;;17.80;99.90;;;;;;5060777;28;20051;-81
2022/08/12 01:29:06;;;;;;;8.40;3.00;;;17.70;99.90;;;;;;5063888;28;20060;-82
2022/08/12 01:31:35;;;;;;;3.70;3.05;;;17.70;99.90;;;;;;5062987;28;20041;-81
2022/08/12 01:34:11;;;;;;;4.05;2.92;;;17.70;99.90;;;;;;5061800;28;20047;-82
2022/08/12 01:36:44;;;;;;;6.68;2.75;;;17.70;99.90;;;;;;5045513;28;20486;-81
2022/08/12 01:39:14;;;;;;;5.88;3.25;;;17.70;99.90;;;;;;5057830;28;20087;-80
2022/08/12 01:41:46;;;;;;;4.28;3.17;;;17.70;99.90;;;;;;5060023;28;20025;-83
2022/08/12 01:44:13;;;;;;;5.57;2.90;;;17.60;99.90;;;;;;5058205;28;20033;-81
2022/08/12 01:46:47;;;;;;;5.22;3.25;;;17.60;99.90;;;;;;5059153;28;20044;-81
2022/08/12 01:49:47;;;;;;;4.90;3.45;;;17.60;99.90;;;;;;5055502;28;20045;-84
2022/08/12 01:52:43;;;;;;;5.00;3.33;;;17.60;99.90;;;;;;5062412;28;20049;-81
2022/08/12 01:55:11;;;;;;;;;;;17.60;99.90;;;;;;5055334;28;20045;-81
2022/08/12 01:57:43;;;;;;;5.70;3.70;;;17.50;99.90;;;;;;5061503;28;19917;-82
2022/08/12 02:00:15;;;;;;;5.47;3.58;;;17.60;99.90;;;;;;5056106;28;20041;-82
2022/08/12 02:03:02;;;;;;;9.13;4.40;;;17.60;99.90;;;;;;5064753;28;20044;-82
2022/08/12 02:11:59;;;;;;;4.25;3.83;;;17.50;99.90;;;;;;5057134;28;20067;-80
2022/08/12 02:14:56;;;;;;;6.65;3.92;;;17.50;99.90;;;;;;5056138;28;20041;-82
2022/08/12 02:17:38;;;;;;;4.60;4.20;;;17.50;99.90;;;;;;5058971;28;20036;-81
2022/08/12 02:20:11;;;;;;;6.95;3.80;;;17.50;99.90;;;;;;5060634;28;20071;-81
2022/08/12 02:22:46;;;;;;;4.78;3.88;;;17.50;99.90;;;;;;5053907;28;20048;-81
2022/08/12 02:25:25;;;;;;;7.57;4.88;;;17.50;99.90;;;;;;5042852;28;20641;-82
2022/08/12 02:27:53;;;;;;;9.15;4.47;;;17.50;99.90;;;;;;5058417;28;20616;-81
2022/08/12 02:30:26;;;;;;;7.97;4.40;;;17.40;99.90;;;;;;5055324;28;20514;-82
2022/08/12 02:32:53;;;;;;;7.22;4.43;;;17.40;99.90;;;;;;5057615;28;20095;-81
2022/08/12 02:35:22;;;;;;;9.27;4.43;;;17.40;99.90;;;;;;5056742;28;20029;-81
2022/08/12 02:37:51;;;;;;;10.35;4.70;;;17.40;99.90;;;;;;5058259;28;20047;-81
2022/08/12 02:40:19;;;;;;;5.65;4.75;;;17.30;99.90;;;;;;5064218;28;20132;-82
2022/08/12 02:42:53;;;;;;;6.32;5.10;;;17.40;99.90;;;;;;5058061;28;20131;-82
2022/08/12 02:45:30;;;;;;;6.05;5.10;;;17.30;99.90;;;;;;5067448;28;20052;-82
2022/08/12 02:47:58;;;;;;;8.20;5.30;;;17.30;99.90;;;;;;5060579;28;20040;-82
2022/08/12 02:50:30;;;;;;;7.65;5.03;;;17.30;99.90;;;;;;5046714;28;20037;-82
2022/08/12 02:52:57;;;;;;;11.18;4.70;;;17.20;99.90;;;;;;5056216;28;20270;-81
2022/08/12 02:55:26;;;;;;;5.57;4.97;;;17.20;99.90;;;;;;5055651;28;20438;-82
2022/08/12 02:57:55;;;;;;;6.90;5.00;;;17.20;99.90;;;;;;5059399;28;20033;-82
2022/08/12 03:00:30;;;;;;;7.05;5.72;;;17.20;99.90;;;;;;5060825;28;20041;-81
2022/08/12 03:03:05;;;;;;;6.32;5.55;;;17.20;99.90;;;;;;5055254;28;20526;-82
2022/08/12 03:05:34;;;;;;;;;;;17.20;99.90;;;;;;5063988;28;20036;-82
2022/08/12 03:08:03;;;;;;;8.93;6.03;;;17.10;99.90;;;;;;5064004;28;19916;-81
2022/08/12 03:10:34;;;;;;;15.68;5.93;;;17.10;99.90;;;;;;5064785;28;20075;-84
2022/08/12 03:13:02;;;;;;;9.35;4.90;;;17.10;99.90;;;;;;5058867;28;20719;-81
2022/08/12 03:15:29;;;;;;;5.78;5.28;;;17.00;99.90;;;;;;5059518;28;20036;-83
2022/08/12 03:18:01;;;;;;;11.48;5.85;;;17.00;99.90;;;;;;5065323;28;20064;-81
2022/08/12 03:20:27;;;;;;;8.90;5.25;;;17.10;99.90;;;;;;5055609;28;20044;-81
2022/08/12 03:22:52;;;;;;;7.78;5.50;;;17.00;99.90;;;;;;5059542;28;20743;-81
2022/08/12 03:25:26;;;;;;;7.15;5.28;;;16.90;99.90;;;;;;5060949;28;20048;-81
2022/08/12 03:27:57;;;;;;;7.70;5.70;;;16.90;99.90;;;;;;5056351;28;20033;-81
2022/08/12 03:30:25;;;;;;;6.60;5.63;;;16.90;99.90;;;;;;5064140;28;20044;-82
2022/08/12 03:32:53;;;;;;;6.20;5.43;;;16.80;99.90;;;;;;5061929;28;20094;-81
2022/08/12 03:35:26;;;;;;;7.57;5.47;;;16.90;99.90;;;;;;5056374;28;20043;-81
2022/08/12 03:37:57;;;;;;;8.48;6.00;;;16.80;99.90;;;;;;5055734;28;20033;-84
2022/08/12 04:02:33;;;;;;;7.05;5.25;;;16.80;99.90;;;;;;5055088;28;20044;-83
2022/08/12 04:05:01;;;;;;;9.23;5.80;;;16.60;99.90;;;;;;5054920;28;20037;-81
2022/08/12 04:07:27;;;;;;;8.45;5.88;;;16.60;99.90;;;;;;5060208;28;20136;-81
2022/08/12 04:09:53;;;;;;;7.97;5.43;;;16.60;99.90;;;;;;5060745;28;20882;-81
2022/08/12 04:15:03;;;;;;;6.50;5.57;;;16.60;99.90;;;;;;5054043;28;20117;-82
2022/08/12 04:17:30;;;;;;;5.53;4.95;;;16.60;99.90;;;;;;5055810;28;20456;-81
2022/08/12 04:20:00;;;;;;;6.57;5.30;;;16.60;99.90;;;;;;5056186;28;20456;-81
2022/08/12 04:22:29;;;;;;;8.10;5.50;;;16.60;99.90;;;;;;5054925;28;20068;-84
2022/08/12 04:24:59;;;;;;;5.47;4.88;;;16.60;99.90;;;;;;5061023;28;20444;-82
2022/08/12 04:27:25;;;;;;;5.05;4.65;;;16.60;99.90;;;;;;5058344;28;20376;-81
2022/08/12 04:29:51;;;;;;;5.40;4.97;;;16.60;99.90;;;;;;5042973;28;20043;-81
2022/08/12 04:32:17;;;;;;;6.50;5.35;;;16.60;99.90;;;;;;5057789;28;20086;-81
2022/08/12 04:34:43;;;;;;;7.28;4.30;;;16.60;99.90;;;;;;5055990;28;20086;-82
2022/08/12 04:37:09;;;;;;;8.45;5.18;;;16.70;99.90;;;;;;5056843;28;20442;-81
2022/08/12 04:39:38;;;;;;;5.10;4.68;;;16.60;99.90;;;;;;5053969;28;20086;-82
2022/08/12 04:42:03;;;;;;;5.43;4.50;;;16.60;99.90;;;;;;5061433;28;20044;-82
2022/08/12 04:44:30;;;;;;;4.85;4.35;;;16.70;99.90;;;;;;5061958;28;20040;-81
2022/08/12 04:46:56;;;;;;;6.10;4.70;;;16.70;99.90;;;;;;5060210;28;20052;-83
2022/08/12 04:49:23;;;;;;;6.72;4.60;;;16.80;99.90;;;;;;5057004;28;21077;-82
2022/08/12 04:51:49;;;;;;;6.65;4.30;;;17.30;99.90;;;;;;5059695;28;20423;-81
2022/08/12 04:54:14;;;;;;;5.28;4.60;;;16.90;99.90;;;;;;5058055;28;20036;-83
2022/08/12 04:56:40;;;;;;;6.90;4.60;;;17.00;99.90;;;;;;5057049;28;20036;-84
2022/08/12 04:59:06;;;;;;;4.72;4.22;;;17.00;99.90;;;;;;5061290;28;20109;-81
2022/08/12 05:01:32;;;;;;;5.88;4.15;;;17.10;99.90;;;;;;5056249;28;20045;-83
2022/08/12 05:03:58;;;;;;;4.97;3.92;;;17.20;99.90;;;;;;5062892;28;20502;-81
2022/08/12 05:06:25;;;;;;;5.53;4.38;;;17.30;99.90;;;;;;5055181;28;20390;-81
2022/08/12 05:08:53;;;;;;;5.85;4.20;;;17.40;99.90;;;;;;5065177;28;20080;-83
2022/08/12 05:11:24;;;;;;;4.93;4.05;;;17.40;99.90;;;;;;5061155;28;20041;-82
2022/08/12 05:13:55;;;;;;;4.18;3.78;;;17.50;99.90;;;;;;5060209;28;20434;-82
2022/08/12 05:16:20;;;;;;;7.15;3.70;;;17.70;99.90;;;;;;5057747;28;20048;-82
2022/08/12 05:18:46;;;;;;;4.22;3.05;;;18.20;99.90;;;;;;5060438;28;20049;-82
2022/08/12 05:21:12;;;;;;;7.95;3.28;;;18.80;99.90;;;;;;5054325;28;20048;-82
2022/08/12 05:23:39;;;;;;;6.78;3.03;;;20.00;99.90;;;;;;5044801;28;20049;-82
2022/08/12 05:26:05;;;;;;;7.28;2.67;;;21.50;99.90;;;;;;5063087;28;20055;-81
2022/08/12 05:28:31;;;;;;;6.10;3.03;;;23.00;99.90;;;;;;5058237;28;20399;-82
2022/08/12 05:30:57;;;;;;;10.32;4.28;;;24.30;99.90;;;;;;5057201;28;20052;-81
2022/08/12 05:33:31;;;;;;;5.43;3.13;;;25.40;99.90;;;;;;5058062;28;20857;-82
2022/08/12 05:35:57;;;;;;;6.72;3.40;;;26.40;99.90;;;;;;5057830;28;20499;-81
2022/08/12 05:38:55;;;;;;;3.85;2.75;;;27.20;99.90;;;;;;5057778;28;20475;-84
2022/08/12 05:41:40;;;;;;;6.40;2.53;;;28.00;99.90;;;;;;5043569;28;20044;-85
2022/08/12 05:44:14;;;;;;;5.23;2.83;;;28.70;99.90;;;;;;5060475;28;20036;-84
2022/08/12 05:46:55;;;;;;;3.92;2.67;;;29.40;99.90;;;;;;5058189;28;20043;-85
2022/08/12 05:49:33;;;;;;;4.68;2.70;;;29.70;99.50;;;;;;5062722;28;20048;-84
2022/08/12 05:52:45;;;;;;;4.53;2.30;;;30.00;99.10;;;;;;5053686;28;20514;-86
2022/08/12 05:55:33;;;;;;;;;;;;;;;;;;;;;
2022/08/12 05:59:23;;;;;;;;;;;;;;;;;;;;;
2022/08/12 06:02:25;;;;;;;5.57;2.15;;;32.10;94.80;;;;;;5034362;28;20057;-85
2022/08/12 06:05:43;;;;;;;5.97;2.10;;;32.50;94.30;;;;;;4987182;28;20112;-86
2022/08/12 06:08:24;;;;;;;;;;;;;;;;;;;;;
2022/08/12 06:11:04;;;;;;;3.85;2.10;;;33.00;92.80;;;;;;5050474;28;20072;-84
2022/08/12 06:13:58;;;;;;;3.67;2.25;;;33.30;92.50;;;;;;5062543;28;20500;-85
2022/08/12 06:16:31;;;;;;;3.95;2.10;;;33.20;91.50;;;;;;5055244;28;20398;-85
2022/08/12 06:19:28;;;;;;;;;;;;;;;;;;;;;
2022/08/12 06:22:20;;;;;;;5.70;2.92;;;33.80;90.60;;;;;;5057649;28;20063;-87
2022/08/12 06:25:18;;;;;;;4.40;2.30;;;34.20;90.20;;;;;;5060100;28;20513;-86
2022/08/12 06:28:16;;;;;;;5.72;1.88;;;34.30;88.30;;;;;;5060821;28;20040;-85
2022/08/12 06:31:13;;;;;;;;;;;;;;;;;;;;;
2022/08/12 06:34:30;;;;;;;4.50;1.63;;;32.10;89.60;;;;;;5058019;28;20387;-85
2022/08/12 06:37:59;;;;;;;;;;;;;;;;;;;;;
2022/08/12 06:44:31;;;;;;;;;;;;;;;;;;;;;
2022/08/12 06:47:41;;;;;;;3.95;1.95;;;29.00;91.60;;;;;;5047566;28;20060;-85
2022/08/12 06:50:29;;;;;;;5.95;1.50;;;28.60;91.80;;;;;;5050303;28;20044;-81
2022/08/12 06:52:59;;;;;;;2.80;1.55;;;28.50;92.10;;;;;;5057916;28;20591;-81
2022/08/12 06:55:25;;;;;;;4.35;1.55;;;28.60;92.50;;;;;;5046141;28;20033;-81
2022/08/12 06:57:53;;;;;;;4.57;2.00;;;28.90;92.40;;;;;;5057372;28;20086;-81
2022/08/12 07:00:24;;;;;;;1.92;1.25;;;28.90;92.50;;;;;;5057047;28;20049;-81
2022/08/12 07:02:51;;;;;;;4.15;1.33;;;28.30;92.70;;;;;;5062634;28;20522;-82
2022/08/12 07:05:23;;;;;;;2.47;1.48;;;28.30;92.70;;;;;;5044397;28;20568;-84
2022/08/12 07:08:24;;;;;;;6.25;1.60;;;28.30;92.60;;;;;;5040700;28;20051;-82
2022/08/12 07:11:54;;;;;;;5.00;1.20;;;28.40;92.40;;;;;;5059402;28;20048;-84
2022/08/12 07:14:42;;;;;;;8.45;1.40;;;28.50;92.50;;;;;;5054511;28;20052;-84
2022/08/12 07:18:16;;;;;;;4.80;1.58;;;28.50;92.30;;;;;;5041986;28;20057;-84
2022/08/12 07:36:13;;;;;;;1.92;1.30;;;28.60;92.80;;;;;;5057484;28;20039;-85
2022/08/12 07:39:40;;;;;;;4.30;1.70;;;28.70;92.60;;;;;;5062662;28;20127;-84
2022/08/12 07:42:43;;;;;;;4.72;1.27;;;28.70;92.00;;;;;;5013310;28;20423;-83
2022/08/12 07:57:59;;;;;;;;;;;;;;;;;;;;;
2022/08/12 08:02:13;;;;;;;;;;;;;;;;;;;;;
2022/08/12 08:24:13;;;;;;;4.00;1.77;;;29.50;91.50;;;;;;5015544;28;20044;-84
2022/08/12 08:34:35;;;;;;;;;;;;;;;;;;;;;
2022/08/12 08:37:07;;;;;;;5.32;1.10;;;30.10;89.90;;;;;;4994872;28;20042;-85
2022/08/12 08:42:35;;;;;;;5.32;1.60;;;30.10;88.90;;;;;;4988537;28;20132;-85
2022/08/12 08:43:15;;;;;;;4.22;1.23;;;30.10;88.20;;;;;;4972923;28;20733;-87
2022/08/12 08:45:51;;;;;;;5.38;1.38;;;30.00;88.90;;;;;;5043558;28;20040;-84
2022/08/12 08:48:35;;;;;;;8.95;1.52;;;30.20;87.00;;;;;;5058856;28;20045;-83
2022/08/12 08:51:04;;;;;;;3.22;1.40;;;30.20;86.90;;;;;;5058895;28;20479;-84
2022/08/12 08:53:40;;;;;;;;;;;;;;;;;;;;;
2022/08/12 08:57:16;;;;;;;;;;;;;;;;;;;;;
2022/08/12 09:00:15;;;;;;;4.07;1.35;;;30.20;84.80;;;;;;5065100;28;20047;-86
2022/08/12 09:03:18;;;;;;;10.10;1.33;;;30.40;85.10;;;;;;5059095;22;20048;-85
2022/08/12 09:05:53;;;;;;;5.25;1.50;;;30.40;84.70;;;;;;5063572;28;20490;-84
2022/08/12 09:08:50;;;;;;;;;;;;;;;;;;;;;
2022/08/12 09:15:12;;;;;;;7.78;1.55;;;30.20;77.50;;;;;;5068273;28;20274;-85
2022/08/12 09:18:33;;;;;;;;;;;;;;;;;;;;;
2022/08/12 09:24:56;;;;;;;;;;;;;;;;;;;;;
2022/08/12 09:27:52;;;;;;;2.85;1.38;;;30.60;80.30;;;;;;5028263;28;20049;-81
2022/08/12 09:34:02;;;;;;;4.50;1.50;;;30.80;77.80;;;;;;5027389;28;20065;-84
2022/08/12 09:37:17;;;;;;;;;;;;;;;;;;;;;
2022/08/12 09:39:44;;;;;;;2.97;1.42;;;31.10;77.30;;;;;;5039781;28;20083;-81
2022/08/12 09:47:19;;;;;;;3.90;1.23;;;30.90;75.30;;;;;;5029872;28;20500;-83
2022/08/12 09:49:48;;;;;;;4.90;1.10;;;30.60;75.20;;;;;;5011546;28;20056;-84
2022/08/12 09:52:22;;;;;;;6.45;1.25;;;30.80;75.20;;;;;;5015491;28;20129;-82
2022/08/12 09:55:26;;;;;;;4.35;1.30;;;30.80;74.50;;;;;;5024623;28;20040;-82
2022/08/12 09:58:50;;;;;;;1.98;1.30;;;30.80;75.60;;;;;;5001186;28;20048;-82
2022/08/12 10:01:45;;;;;;;4.90;1.00;;;30.90;76.00;;;;;;5018865;28;20084;-82
2022/08/12 10:04:19;;;;;;;4.68;1.38;;;31.00;76.50;;;;;;5048740;28;20049;-83
2022/08/12 10:07:27;;;;;;;;;;;;;;;;;;;;;
2022/08/12 10:29:45;;;;;;;5.60;1.30;;;31.10;70.20;;;;;;4986949;28;20145;-82
2022/08/12 10:32:35;;;;;;;3.65;1.23;;;31.10;70.30;;;;;;4992131;28;20057;-81
2022/08/12 10:38:16;;;;;;;5.13;1.00;;;31.50;71.00;;;;;;4931853;29;20047;-81
2022/08/12 10:44:21;;;;;;;;;;;;;;;;;;;;;
2022/08/12 10:49:59;;;;;;;1.80;1.00;;;31.20;66.40;;;;;;5015760;28;20049;-79
2022/08/12 10:52:28;;;;;;;3.10;1.20;;;31.10;66.80;;;;;;5050371;28;20119;-78
2022/08/12 10:54:54;;;;;;;3.53;0.98;;;31.20;67.20;;;;;;5049535;28;20133;-80
2022/08/12 10:57:22;;;;;;;6.55;1.95;;;31.20;67.30;;;;;;5027571;28;20045;-80
2022/08/12 10:59:47;;;;;;;3.00;1.15;;;31.20;66.80;;;;;;5041377;28;20051;-80
2022/08/12 11:09:50;;;;;;;9.48;1.13;;;31.50;68.20;;;;;;5042266;28;20319;-84
2022/08/12 11:12:41;;;;;;;1.80;0.70;;;31.50;67.60;;;;;;5030862;28;20044;-80
2022/08/12 11:15:34;;;;;;;1.70;0.80;;;31.60;66.30;;;;;;5033927;28;20123;-80
2022/08/12 11:18:00;;;;;;;2.95;0.93;;;31.60;66.70;;;;;;5044082;28;20432;-80
2022/08/12 11:20:25;;;;;;;6.97;1.25;;;31.60;65.40;;;;;;5039209;28;20047;-80
2022/08/12 11:23:00;;;;;;;2.85;0.93;;;31.40;66.40;;;;;;5050756;28;20492;-79
2022/08/12 11:25:26;;;;;;;3.22;1.00;;;31.90;67.80;;;;;;5046290;28;20132;-79
2022/08/12 11:27:51;;;;;;;4.28;1.08;;;31.90;65.50;;;;;;5054004;28;20127;-79
2022/08/12 11:30:17;;;;;;;4.18;1.05;;;31.90;65.40;;;;;;5043868;28;20125;-81
2022/08/12 11:32:55;;;;;;;1.70;0.98;;;32.00;67.00;;;;;;5043288;28;20030;-82
2022/08/12 11:35:26;;;;;;;9.45;1.15;;;31.80;65.20;;;;;;5027555;28;20048;-80
2022/08/12 11:37:52;;;;;;;1.88;1.00;;;31.70;66.20;;;;;;5045459;28;20488;-80
2022/08/12 11:40:18;;;;;;;1.42;0.93;;;31.70;64.60;;;;;;5041510;28;20049;-80
2022/08/12 11:42:55;;;;;;;18.08;1.67;;;31.50;64.50;;;;;;5049243;28;20041;-81
2022/08/12 11:45:23;;;;;;;5.25;1.08;;;31.60;67.40;;;;;;5023690;28;21085;-80
2022/08/12 11:47:49;;;;;;;2.08;1.10;;;31.70;67.60;;;;;;5028692;28;20041;-80
2022/08/12 11:50:15;;;;;;;4.00;0.98;;;31.70;67.10;;;;;;5040854;28;20099;-80
2022/08/12 11:52:40;;;;;;;1.88;1.05;;;31.70;66.20;;;;;;5026144;28;20072;-80
2022/08/12 11:55:06;;;;;;;3.70;0.90;;;31.70;65.10;;;;;;5049814;28;20032;-79
2022/08/12 11:58:11;;;;;;;4.68;1.13;;;31.60;63.90;;;;;;5055467;28;20032;-81
2022/08/12 12:00:36;;;;;;;3.00;1.15;;;31.70;65.80;;;;;;4977615;28;20097;-80
2022/08/12 12:03:02;;;;;;;9.85;1.05;;;31.60;64.50;;;;;;4954167;28;20078;-80
2022/08/12 12:05:28;;;;;;;8.82;1.15;;;31.60;65.80;;;;;;5003202;28;20049;-81
2022/08/12 12:07:53;;;;;;;5.38;0.85;;;31.50;65.50;;;;;;5038271;28;20052;-79
2022/08/12 12:10:19;;;;;;;4.85;0.80;;;31.40;63.80;;;;;;5041105;28;20436;-79
2022/08/12 12:12:46;;;;;;;11.75;1.23;;;31.40;63.50;;;;;;5030826;28;20043;-80
2022/08/12 12:15:12;;;;;;;2.85;1.13;;;31.60;65.70;;;;;;5040234;28;20052;-79
2022/08/12 12:17:39;;;;;;;2.25;0.82;;;31.60;63.20;;;;;;5041089;28;20401;-79
2022/08/12 12:20:08;;;;;;;2.15;1.00;;;31.60;63.80;;;;;;5034178;28;20496;-81
2022/08/12 12:22:35;;;;;;;5.72;1.35;;;31.70;65.10;;;;;;5042128;28;20048;-79
2022/08/12 12:25:01;;;;;;;3.63;1.65;;;31.80;65.30;;;;;;5038758;28;20044;-78
2022/08/12 12:27:26;;;;;;;2.95;1.20;;;31.80;63.90;;;;;;5045705;28;20624;-79
2022/08/12 12:29:55;;;;;;;2.95;1.50;;;31.90;64.20;;;;;;5047043;28;20092;-79
2022/08/12 12:32:20;;;;;;;6.65;1.20;;;31.70;62.70;;;;;;5044434;28;20048;-79
2022/08/12 12:34:46;;;;;;;10.82;1.15;;;31.70;64.10;;;;;;5037977;28;20401;-78
2022/08/12 12:37:12;;;;;;;5.38;1.20;;;31.70;64.20;;;;;;5043303;28;20037;-80
2022/08/12 12:39:39;;;;;;;3.05;1.10;;;31.60;63.30;;;;;;5035261;28;20044;-79
2022/08/12 12:42:05;;;;;;;4.10;0.93;;;31.50;63.10;;;;;;5047808;28;20454;-80
2022/08/12 12:44:31;;;;;;;4.20;1.45;;;31.60;65.20;;;;;;5052645;28;20052;-79
2022/08/12 12:46:56;;;;;;;2.92;1.20;;;31.60;63.70;;;;;;5043816;28;20045;-80
2022/08/12 12:49:22;;;;;;;1.48;1.00;;;31.60;63.40;;;;;;5038261;28;20492;-80
2022/08/12 12:51:48;;;;;;;3.30;1.23;;;31.60;64.10;;;;;;5037335;28;20558;-78
2022/08/12 12:54:19;;;;;;;7.03;1.38;;;31.70;65.30;;;;;;5045398;28;20052;-80
2022/08/12 12:56:48;;;;;;;2.55;1.40;;;31.60;63.00;;;;;;5045360;28;20033;-80
2022/08/12 12:59:17;;;;;;;6.43;1.25;;;31.50;61.80;;;;;;5044361;28;20098;-79
2022/08/12 13:01:43;;;;;;;4.95;1.58;;;31.30;62.40;;;;;;5047530;28;20044;-78
2022/08/12 13:04:10;;;;;;;4.20;1.08;;;31.40;64.60;;;;;;5052615;28;20041;-82
2022/08/12 13:06:50;;;;;;;7.35;1.13;;;31.40;63.70;;;;;;5067161;28;20627;-81
2022/08/12 13:09:21;;;;;;;3.60;1.17;;;31.50;62.60;;;;;;5031110;28;20041;-80
2022/08/12 13:11:47;;;;;;;6.28;1.02;;;31.60;61.20;;;;;;5036324;28;20129;-79
2022/08/12 13:14:37;;;;;;;6.93;1.30;;;31.60;62.80;;;;;;5048727;28;20072;-81
2022/08/12 13:17:03;;;;;;;2.90;1.27;;;31.50;64.20;;;;;;5043317;28;20036;-81
2022/08/12 13:19:34;;;;;;;6.47;1.25;;;31.50;63.00;;;;;;5031860;28;20040;-80
2022/08/12 13:22:16;;;;;;;2.78;1.30;;;31.40;63.20;;;;;;5048745;28;20056;-80
2022/08/12 13:24:42;;;;;;;5.32;1.30;;;31.30;62.90;;;;;;5046763;28;20508;-80
2022/08/12 13:27:08;;;;;;;4.78;1.00;;;31.30;63.50;;;;;;5056295;28;20075;-80
2022/08/12 13:29:35;;;;;;;4.13;1.42;;;31.20;64.90;;;;;;5040466;28;20048;-80
2022/08/12 13:32:01;;;;;;;4.55;1.40;;;31.20;65.20;;;;;;5032871;28;20041;-80
2022/08/12 13:34:27;;;;;;;5.88;1.40;;;31.20;64.70;;;;;;5031656;28;20069;-82
2022/08/12 13:36:55;;;;;;;8.35;2.03;;;31.40;65.30;;;;;;5046379;28;20052;-80
2022/08/12 13:39:29;;;;;;;2.03;1.40;;;31.40;64.90;;;;;;5021090;28;20079;-78
2022/08/12 13:41:55;;;;;;;4.03;1.60;;;31.60;64.70;;;;;;4994858;28;20099;-80
2022/08/12 13:44:21;;;;;;;6.15;1.40;;;31.40;63.50;;;;;;5054424;28;20135;-80
2022/08/12 13:46:58;;;;;;;4.13;1.25;;;31.40;64.60;;;;;;5047334;28;20146;-82
2022/08/12 13:49:39;;;;;;;7.70;1.52;;;31.40;65.00;;;;;;5047307;28;20049;-82
2022/08/12 13:52:48;;;;;;;4.10;1.45;;;31.50;66.00;;;;;;5045493;28;20120;-82
2022/08/12 13:55:24;;;;;;;4.18;1.00;;;31.60;64.80;;;;;;5030259;28;20040;-82
2022/08/12 13:58:10;;;;;;;4.25;0.98;;;31.50;64.20;;;;;;5009484;28;20487;-81
2022/08/12 14:01:03;;;;;;;2.83;1.42;;;31.50;64.60;;;;;;5029205;28;20037;-81
2022/08/12 14:03:29;;;;;;;4.20;1.45;;;31.60;64.60;;;;;;5047213;28;20037;-82
2022/08/12 14:05:58;;;;;;;2.20;1.40;;;31.60;64.60;;;;;;5033659;28;20471;-81
2022/08/12 14:08:29;;;;;;;4.47;1.30;;;31.50;63.90;;;;;;5043368;28;20097;-83
2022/08/12 14:10:55;;;;;;;2.20;1.45;;;31.50;64.80;;;;;;5053679;28;20056;-81
2022/08/12 14:13:26;;;;;;;5.93;1.30;;;31.50;64.60;;;;;;5036927;28;20052;-83
2022/08/12 14:16:03;;;;;;;3.75;1.52;;;31.40;65.20;;;;;;5045610;28;20050;-80
2022/08/12 14:18:31;;;;;;;5.97;1.38;;;31.40;65.90;;;;;;5055254;28;20032;-81
2022/08/12 14:21:03;;;;;;;4.53;1.52;;;31.40;65.70;;;;;;5051861;28;20051;-80
2022/08/12 14:23:31;;;;;;;3.88;1.33;;;31.40;65.50;;;;;;5042543;28;20075;-79
2022/08/12 14:25:59;;;;;;;5.80;1.42;;;31.40;65.30;;;;;;5049878;28;20135;-80
2022/08/12 14:28:27;;;;;;;4.07;1.38;;;31.40;64.80;;;;;;5038662;28;20053;-79
2022/08/12 14:30:59;;;;;;;9.70;1.65;;;31.40;65.10;;;;;;5048053;28;20063;-79
2022/08/12 14:33:36;;;;;;;5.50;1.83;;;31.30;64.20;;;;;;5047975;28;20056;-80
2022/08/12 14:36:07;;;;;;;6.07;1.63;;;31.20;65.20;;;;;;5047377;28;20491;-81
2022/08/12 14:38:38;;;;;;;7.00;1.20;;;31.30;64.60;;;;;;5042995;28;20060;-80
2022/08/12 14:41:05;;;;;;;2.95;1.35;;;31.30;64.60;;;;;;5044998;28;20048;-80
2022/08/12 14:43:36;;;;;;;5.25;1.70;;;31.30;65.60;;;;;;5051254;28;20067;-81
2022/08/12 14:46:04;;;;;;;4.00;1.55;;;31.20;64.90;;;;;;5045959;28;20075;-80
2022/08/12 14:48:31;;;;;;;5.47;1.27;;;31.20;65.80;;;;;;5029535;28;20075;-83
2022/08/12 14:50:57;;;;;;;3.10;1.40;;;31.20;63.80;;;;;;5044649;28;20041;-80
2022/08/12 14:53:23;;;;;;;7.78;1.55;;;31.10;64.10;;;;;;5042094;28;20053;-80
2022/08/12 14:55:49;;;;;;;11.10;1.40;;;31.10;64.20;;;;;;5047549;28;20051;-80
2022/08/12 14:58:17;;;;;;;4.85;1.15;;;31.10;64.40;;;;;;5044424;28;20044;-79
2022/08/12 15:03:28;;;;;;;;;;;31.10;64.30;;;;;;5041815;28;20126;-80
2022/08/12 15:05:59;;;;;;;10.52;2.58;;;31.00;64.10;;;;;;5048304;28;19921;-79
2022/08/12 15:08:33;;;;;;;4.57;1.42;;;31.00;65.00;;;;;;5051080;28;20403;-79
2022/08/12 15:11:01;;;;;;;7.10;1.50;;;31.10;64.10;;;;;;5043682;28;20045;-80
2022/08/12 15:13:30;;;;;;;7.18;1.70;;;31.10;64.40;;;;;;5048251;28;20033;-82
2022/08/12 15:16:06;;;;;;;3.28;1.20;;;31.10;64.40;;;;;;5048245;28;20142;-82
2022/08/12 15:18:32;;;;;;;7.95;1.20;;;31.00;65.10;;;;;;5052071;28;20036;-82
2022/08/12 15:21:00;;;;;;;7.72;1.75;;;30.90;65.30;;;;;;5045745;28;20606;-82
2022/08/12 15:23:31;;;;;;;5.05;1.25;;;30.90;64.90;;;;;;5055728;28;20064;-82
2022/08/12 15:26:00;;;;;;;11.50;1.48;;;30.90;65.30;;;;;;5043515;28;20051;-80
2022/08/12 15:28:28;;;;;;;4.55;1.55;;;30.80;65.60;;;;;;5042155;28;20818;-80
2022/08/12 15:31:43;;;;;;;3.15;1.67;;;30.90;65.50;;;;;;5048645;28;20048;-84
2022/08/12 15:34:09;;;;;;;7.03;1.70;;;30.80;65.60;;;;;;4970080;28;20060;-81
2022/08/12 15:36:37;;;;;;;6.10;1.48;;;30.60;64.60;;;;;;5041630;28;20608;-82
2022/08/12 15:39:05;;;;;;;4.05;1.40;;;30.80;65.10;;;;;;5048425;28;20431;-81
2022/08/12 15:42:45;;;;;;;5.82;1.33;;;30.70;65.20;;;;;;5053430;28;20062;-83
2022/08/12 15:45:21;;;;;;;;;;;;;;;;;;;;;
2022/08/12 15:48:34;;;;;;;6.13;1.38;;;30.60;66.00;;;;;;5025815;28;20049;-82
2022/08/12 15:51:31;;;;;;;2.60;1.30;;;30.60;65.90;;;;;;5029442;28;20051;-83
2022/08/12 15:54:12;;;;;;;6.88;1.60;;;30.60;66.30;;;;;;5047755;28;20512;-82
2022/08/12 15:57:07;;;;;;;7.68;1.70;;;30.50;66.20;;;;;;5050330;28;20048;-83
2022/08/12 15:59:59;;;;;;;5.63;1.63;;;30.50;64.70;;;;;;5050260;28;20537;-83
2022/08/12 16:02:56;;;;;;;;;;;;;;;;;;;;;
2022/08/12 16:05:44;;;;;;;2.72;1.70;;;30.50;65.00;;;;;;5041608;28;20091;-80
2022/08/12 16:08:10;;;;;;;5.00;1.63;;;30.60;65.30;;;;;;5048465;28;20045;-81
2022/08/12 16:10:38;;;;;;;7.65;2.85;;;30.40;65.30;;;;;;5044490;28;20037;-82
2022/08/12 16:13:12;;;;;;;8.40;1.60;;;30.40;65.40;;;;;;5040910;28;20289;-83
2022/08/12 16:15:39;;;;;;;4.63;1.63;;;30.30;65.20;;;;;;5041605;28;20037;-83
2022/08/12 16:18:07;;;;;;;8.07;2.45;;;30.30;65.80;;;;;;5041634;28;20053;-83
2022/08/12 16:20:34;;;;;;;2.45;1.48;;;30.20;67.70;;;;;;5045994;28;20071;-82
2022/08/12 16:23:03;;;;;;;7.40;1.52;;;30.20;66.80;;;;;;5042329;28;20049;-80
2022/08/12 16:25:40;;;;;;;4.18;1.45;;;30.20;66.50;;;;;;5052618;28;20037;-85
2022/08/12 16:28:11;;;;;;;3.08;1.58;;;30.20;66.60;;;;;;5040603;28;20124;-85
2022/08/12 16:31:26;;;;;;;2.78;1.40;;;30.10;66.10;;;;;;5048568;28;20041;-84
2022/08/12 16:33:54;;;;;;;5.22;1.60;;;30.00;66.80;;;;;;5034315;28;20041;-83
2022/08/12 16:40:52;;;;;;;6.20;1.38;;;29.90;66.40;;;;;;5046859;28;20039;-85
2022/08/12 17:13:17;;;;;;;8.07;1.42;;;29.30;67.70;;;;;;5119494;22;20052;-84
2022/08/12 17:16:06;;;;;;;1.38;1.20;;;29.60;67.90;;;;;;5022472;28;20068;-81
2022/08/12 17:18:46;;;;;;;4.90;1.20;;;29.00;67.00;;;;;;5000247;28;20400;-85
2022/08/12 17:21:29;;;;;;;;;;;;;;;;;;;;;
2022/08/12 17:24:10;;;;;;;;;;;;;;;;;;;;;
2022/08/12 17:26:38;;;;;;;3.58;1.35;;;29.20;67.40;;;;;;5023548;28;20049;-81
2022/08/12 17:29:08;;;;;;;6.50;1.92;;;29.10;67.50;;;;;;5024144;28;20045;-81
2022/08/12 17:31:36;;;;;;;6.80;1.92;;;29.30;67.60;;;;;;5024924;28;20072;-81
2022/08/12 17:37:15;;;;;;;5.78;1.80;;;29.00;68.50;;;;;;5007582;28;20141;-81
2022/08/12 17:39:43;;;;;;;3.38;2.00;;;28.90;67.90;;;;;;5022586;28;20124;-83
2022/08/12 17:42:15;;;;;;;9.85;1.80;;;29.00;68.40;;;;;;5022541;28;20056;-86
2022/08/12 17:45:26;;;;;;;6.18;1.83;;;28.70;68.40;;;;;;5025544;28;20100;-83
2022/08/12 17:48:32;;;;;;;;;;;;;;;;;;;;;
2022/08/12 17:51:52;;;;;;;;;;;;;;;;;;;;;
2022/08/12 17:54:58;;;;;;;;;;;;;;;;;;;;;
2022/08/12 18:02:13;;;;;;;2.40;1.20;;;28.40;69.70;;;;;;4973189;28;20088;-83
2022/08/12 18:05:20;;;;;;;;;;;;;;;;;;;;;
2022/08/12 18:08:32;;;;;;;6.22;1.65;;;28.30;69.80;;;;;;4983123;28;20480;-81
2022/08/12 18:14:51;;;;;;;;;;;;;;;;;;;;;
2022/08/12 18:17:52;;;;;;;3.10;1.40;;;28.00;70.40;;;;;;4985454;28;20074;-83